sensor_id;sensor_type;location;lat;lon;timestamp;P1;durP1;ratioP1;P2;durP2;ratioP2
62957;SDS011;49056;48.352;10.926;2022-07-29T00:00:09;1.50;;;0.77;;
62957;SDS011;49056;48.352;10.926;2022-07-29T00:05:31;1.45;;;0.73;;
62957;SDS011;49056;48.352;10.926;2022-07-29T00:10:51;1.10;;;0.70;;
62957;SDS011;49056;48.352;10.926;2022-07-29T00:16:12;2.23;;;0.60;;
62957;SDS011;49056;48.352;10.926;2022-07-29T00:21:32;0.83;;;0.60;;
62957;SDS011;49056;48.352;10.926;2022-07-29T00:26:52;1.12;;;0.75;;
62957;SDS011;49056;48.352;10.926;2022-07-29T00:32:12;2.58;;;1.15;;
62957;SDS011;49056;48.352;10.926;2022-07-29T00:37:33;1.35;;;0.85;;
62957;SDS011;49056;48.352;10.926;2022-07-29T00:42:53;1.07;;;0.63;;
62957;SDS011;49056;48.352;10.926;2022-07-29T00:48:13;1.70;;;0.70;;
62957;SDS011;49056;48.352;10.926;2022-07-29T00:53:34;0.73;;;0.50;;
62957;SDS011;49056;48.352;10.926;2022-07-29T00:58:55;1.08;;;0.60;;
62957;SDS011;49056;48.352;10.926;2022-07-29T01:04:16;1.55;;;0.60;;
62957;SDS011;49056;48.352;10.926;2022-07-29T01:09:37;0.60;;;0.50;;
62957;SDS011;49056;48.352;10.926;2022-07-29T01:14:58;1.02;;;0.80;;
62957;SDS011;49056;48.352;10.926;2022-07-29T01:32:38;0.93;;;0.80;;
62957;SDS011;49056;48.352;10.926;2022-07-29T01:37:29;1.00;;;0.62;;
62957;SDS011;49056;48.352;10.926;2022-07-29T01:42:52;0.90;;;0.80;;
62957;SDS011;49056;48.352;10.926;2022-07-29T01:54:14;1.55;;;0.90;;
62957;SDS011;49056;48.352;10.926;2022-07-29T01:59:33;1.62;;;0.80;;
62957;SDS011;49056;48.352;10.926;2022-07-29T02:04:55;1.60;;;0.75;;
62957;SDS011;49056;48.352;10.926;2022-07-29T02:10:16;1.25;;;0.80;;
62957;SDS011;49056;48.352;10.926;2022-07-29T02:15:39;1.37;;;0.90;;
62957;SDS011;49056;48.352;10.926;2022-07-29T02:21:01;2.28;;;1.10;;
62957;SDS011;49056;48.352;10.926;2022-07-29T02:26:23;1.48;;;0.90;;
62957;SDS011;49056;48.352;10.926;2022-07-29T02:31:44;2.12;;;0.65;;
62957;SDS011;49056;48.352;10.926;2022-07-29T02:37:08;0.77;;;0.55;;
62957;SDS011;49056;48.352;10.926;2022-07-29T02:42:29;1.10;;;0.80;;
62957;SDS011;49056;48.352;10.926;2022-07-29T02:47:51;1.35;;;0.75;;
62957;SDS011;49056;48.352;10.926;2022-07-29T02:53:13;0.85;;;0.70;;
62957;SDS011;49056;48.352;10.926;2022-07-29T02:58:36;0.77;;;0.47;;
62957;SDS011;49056;48.352;10.926;2022-07-29T03:03:59;1.70;;;0.70;;
62957;SDS011;49056;48.352;10.926;2022-07-29T03:09:21;2.47;;;0.80;;
62957;SDS011;49056;48.352;10.926;2022-07-29T03:14:42;3.58;;;0.70;;
62957;SDS011;49056;48.352;10.926;2022-07-29T03:20:03;1.60;;;0.95;;
62957;SDS011;49056;48.352;10.926;2022-07-29T03:25:24;0.52;;;0.52;;
62957;SDS011;49056;48.352;10.926;2022-07-29T03:30:45;0.77;;;0.65;;
62957;SDS011;49056;48.352;10.926;2022-07-29T03:36:05;1.90;;;0.80;;
62957;SDS011;49056;48.352;10.926;2022-07-29T03:41:25;0.73;;;0.68;;
62957;SDS011;49056;48.352;10.926;2022-07-29T03:46:46;1.42;;;0.52;;
62957;SDS011;49056;48.352;10.926;2022-07-29T03:52:08;0.98;;;0.52;;
62957;SDS011;49056;48.352;10.926;2022-07-29T03:57:29;1.07;;;0.50;;
62957;SDS011;49056;48.352;10.926;2022-07-29T04:02:50;1.52;;;0.70;;
62957;SDS011;49056;48.352;10.926;2022-07-29T04:08:11;1.02;;;0.82;;
62957;SDS011;49056;48.352;10.926;2022-07-29T04:13:31;1.02;;;0.60;;
62957;SDS011;49056;48.352;10.926;2022-07-29T04:18:53;0.62;;;0.45;;
62957;SDS011;49056;48.352;10.926;2022-07-29T04:24:13;0.50;;;0.32;;
62957;SDS011;49056;48.352;10.926;2022-07-29T04:29:33;1.65;;;0.68;;
62957;SDS011;49056;48.352;10.926;2022-07-29T04:34:53;1.13;;;0.60;;
62957;SDS011;49056;48.352;10.926;2022-07-29T04:40:14;1.37;;;0.53;;
62957;SDS011;49056;48.352;10.926;2022-07-29T04:45:34;1.33;;;0.50;;
62957;SDS011;49056;48.352;10.926;2022-07-29T04:50:55;0.70;;;0.53;;
62957;SDS011;49056;48.352;10.926;2022-07-29T04:56:15;0.82;;;0.70;;
62957;SDS011;49056;48.352;10.926;2022-07-29T05:01:36;1.50;;;0.60;;
62957;SDS011;49056;48.352;10.926;2022-07-29T05:06:56;1.02;;;0.60;;
62957;SDS011;49056;48.352;10.926;2022-07-29T05:12:16;0.52;;;0.40;;
62957;SDS011;49056;48.352;10.926;2022-07-29T05:17:37;0.98;;;0.50;;
62957;SDS011;49056;48.352;10.926;2022-07-29T05:22:59;1.17;;;0.55;;
62957;SDS011;49056;48.352;10.926;2022-07-29T05:28:19;0.95;;;0.73;;
62957;SDS011;49056;48.352;10.926;2022-07-29T05:33:40;1.07;;;0.50;;
62957;SDS011;49056;48.352;10.926;2022-07-29T05:39:00;0.60;;;0.50;;
62957;SDS011;49056;48.352;10.926;2022-07-29T05:44:21;1.50;;;0.87;;
62957;SDS011;49056;48.352;10.926;2022-07-29T05:49:41;1.03;;;0.50;;
62957;SDS011;49056;48.352;10.926;2022-07-29T05:55:02;1.25;;;0.60;;
62957;SDS011;49056;48.352;10.926;2022-07-29T06:00:24;1.83;;;0.68;;
62957;SDS011;49056;48.352;10.926;2022-07-29T06:05:44;0.57;;;0.40;;
62957;SDS011;49056;48.352;10.926;2022-07-29T06:11:05;1.30;;;0.50;;
62957;SDS011;49056;48.352;10.926;2022-07-29T06:16:25;0.62;;;0.37;;
62957;SDS011;49056;48.352;10.926;2022-07-29T06:21:46;0.60;;;0.50;;
62957;SDS011;49056;48.352;10.926;2022-07-29T06:27:06;0.85;;;0.55;;
62957;SDS011;49056;48.352;10.926;2022-07-29T06:32:27;0.57;;;0.40;;
62957;SDS011;49056;48.352;10.926;2022-07-29T06:37:47;1.27;;;0.52;;
62957;SDS011;49056;48.352;10.926;2022-07-29T06:43:07;0.97;;;0.50;;
62957;SDS011;49056;48.352;10.926;2022-07-29T06:48:28;0.98;;;0.50;;
62957;SDS011;49056;48.352;10.926;2022-07-29T06:53:49;3.30;;;0.68;;
62957;SDS011;49056;48.352;10.926;2022-07-29T06:59:11;1.12;;;0.65;;
62957;SDS011;49056;48.352;10.926;2022-07-29T07:04:32;1.52;;;0.70;;
62957;SDS011;49056;48.352;10.926;2022-07-29T07:09:53;1.35;;;0.68;;
62957;SDS011;49056;48.352;10.926;2022-07-29T07:15:13;0.90;;;0.50;;
62957;SDS011;49056;48.352;10.926;2022-07-29T07:20:36;0.97;;;0.53;;
62957;SDS011;49056;48.352;10.926;2022-07-29T07:25:56;1.50;;;0.70;;
62957;SDS011;49056;48.352;10.926;2022-07-29T07:31:17;4.37;;;0.90;;
62957;SDS011;49056;48.352;10.926;2022-07-29T07:36:37;0.80;;;0.50;;
62957;SDS011;49056;48.352;10.926;2022-07-29T07:41:58;1.83;;;0.87;;
62957;SDS011;49056;48.352;10.926;2022-07-29T07:47:18;0.85;;;0.52;;
62957;SDS011;49056;48.352;10.926;2022-07-29T07:52:50;1.35;;;0.70;;
62957;SDS011;49056;48.352;10.926;2022-07-29T07:58:11;0.85;;;0.50;;
62957;SDS011;49056;48.352;10.926;2022-07-29T08:03:32;1.77;;;0.70;;
62957;SDS011;49056;48.352;10.926;2022-07-29T08:08:54;0.82;;;0.50;;
62957;SDS011;49056;48.352;10.926;2022-07-29T08:14:14;1.00;;;0.73;;
62957;SDS011;49056;48.352;10.926;2022-07-29T08:19:35;0.60;;;0.50;;
62957;SDS011;49056;48.352;10.926;2022-07-29T08:24:56;1.08;;;0.80;;
62957;SDS011;49056;48.352;10.926;2022-07-29T08:30:16;1.48;;;0.80;;
62957;SDS011;49056;48.352;10.926;2022-07-29T08:35:38;0.85;;;0.47;;
62957;SDS011;49056;48.352;10.926;2022-07-29T08:41:00;1.15;;;0.70;;
62957;SDS011;49056;48.352;10.926;2022-07-29T08:46:20;0.70;;;0.60;;
62957;SDS011;49056;48.352;10.926;2022-07-29T08:51:41;0.87;;;0.60;;
62957;SDS011;49056;48.352;10.926;2022-07-29T08:57:02;1.23;;;0.82;;
62957;SDS011;49056;48.352;10.926;2022-07-29T09:02:22;1.55;;;0.80;;
62957;SDS011;49056;48.352;10.926;2022-07-29T09:07:43;0.90;;;0.62;;
62957;SDS011;49056;48.352;10.926;2022-07-29T09:13:04;1.58;;;1.00;;
62957;SDS011;49056;48.352;10.926;2022-07-29T09:18:35;0.98;;;0.73;;
62957;SDS011;49056;48.352;10.926;2022-07-29T09:24:09;2.47;;;1.33;;
62957;SDS011;49056;48.352;10.926;2022-07-29T09:29:29;1.27;;;0.90;;
62957;SDS011;49056;48.352;10.926;2022-07-29T09:34:50;2.15;;;0.82;;
62957;SDS011;49056;48.352;10.926;2022-07-29T09:40:11;1.30;;;0.80;;
62957;SDS011;49056;48.352;10.926;2022-07-29T09:45:33;1.30;;;0.68;;
62957;SDS011;49056;48.352;10.926;2022-07-29T09:50:53;2.03;;;1.10;;
62957;SDS011;49056;48.352;10.926;2022-07-29T09:56:14;2.17;;;0.98;;
62957;SDS011;49056;48.352;10.926;2022-07-29T10:01:35;1.50;;;1.00;;
62957;SDS011;49056;48.352;10.926;2022-07-29T10:07:00;1.42;;;0.75;;
62957;SDS011;49056;48.352;10.926;2022-07-29T10:12:20;1.73;;;1.00;;
62957;SDS011;49056;48.352;10.926;2022-07-29T10:17:41;1.42;;;1.02;;
62957;SDS011;49056;48.352;10.926;2022-07-29T10:23:02;1.73;;;1.02;;
62957;SDS011;49056;48.352;10.926;2022-07-29T10:28:22;2.37;;;1.17;;
62957;SDS011;49056;48.352;10.926;2022-07-29T10:39:05;1.80;;;1.10;;
62957;SDS011;49056;48.352;10.926;2022-07-29T10:44:30;2.40;;;1.10;;
62957;SDS011;49056;48.352;10.926;2022-07-29T10:50:00;2.15;;;0.98;;
62957;SDS011;49056;48.352;10.926;2022-07-29T10:55:37;1.05;;;0.80;;
62957;SDS011;49056;48.352;10.926;2022-07-29T11:01:00;1.67;;;0.90;;
62957;SDS011;49056;48.352;10.926;2022-07-29T11:12:45;1.30;;;0.80;;
62957;SDS011;49056;48.352;10.926;2022-07-29T11:18:07;2.00;;;1.08;;
62957;SDS011;49056;48.352;10.926;2022-07-29T11:23:31;1.15;;;0.85;;
62957;SDS011;49056;48.352;10.926;2022-07-29T11:34:22;2.65;;;1.10;;
62957;SDS011;49056;48.352;10.926;2022-07-29T11:45:17;1.80;;;1.00;;
62957;SDS011;49056;48.352;10.926;2022-07-29T11:50:38;1.40;;;0.93;;
62957;SDS011;49056;48.352;10.926;2022-07-29T11:55:59;1.08;;;0.93;;
62957;SDS011;49056;48.352;10.926;2022-07-29T12:01:19;2.22;;;0.90;;
62957;SDS011;49056;48.352;10.926;2022-07-29T12:06:41;1.37;;;0.82;;
62957;SDS011;49056;48.352;10.926;2022-07-29T12:12:01;1.60;;;1.23;;
62957;SDS011;49056;48.352;10.926;2022-07-29T12:17:25;0.90;;;0.75;;
62957;SDS011;49056;48.352;10.926;2022-07-29T12:22:47;1.92;;;1.20;;
62957;SDS011;49056;48.352;10.926;2022-07-29T12:28:10;1.52;;;0.88;;
62957;SDS011;49056;48.352;10.926;2022-07-29T12:33:30;1.40;;;0.93;;
62957;SDS011;49056;48.352;10.926;2022-07-29T12:38:51;1.73;;;1.20;;
62957;SDS011;49056;48.352;10.926;2022-07-29T12:44:12;1.55;;;1.10;;
62957;SDS011;49056;48.352;10.926;2022-07-29T12:49:32;1.40;;;0.80;;
62957;SDS011;49056;48.352;10.926;2022-07-29T12:54:52;1.25;;;0.90;;
62957;SDS011;49056;48.352;10.926;2022-07-29T13:00:13;3.50;;;1.10;;
62957;SDS011;49056;48.352;10.926;2022-07-29T13:05:44;1.83;;;0.90;;
62957;SDS011;49056;48.352;10.926;2022-07-29T13:11:04;3.12;;;0.95;;
62957;SDS011;49056;48.352;10.926;2022-07-29T13:16:25;0.90;;;0.80;;
62957;SDS011;49056;48.352;10.926;2022-07-29T13:21:46;1.67;;;0.90;;
62957;SDS011;49056;48.352;10.926;2022-07-29T13:27:06;1.37;;;0.90;;
62957;SDS011;49056;48.352;10.926;2022-07-29T13:32:28;2.03;;;1.20;;
62957;SDS011;49056;48.352;10.926;2022-07-29T13:37:48;1.60;;;1.10;;
62957;SDS011;49056;48.352;10.926;2022-07-29T13:43:09;0.70;;;0.63;;
62957;SDS011;49056;48.352;10.926;2022-07-29T13:48:29;2.17;;;1.33;;
62957;SDS011;49056;48.352;10.926;2022-07-29T13:53:50;1.40;;;0.90;;
62957;SDS011;49056;48.352;10.926;2022-07-29T13:59:11;2.60;;;1.10;;
62957;SDS011;49056;48.352;10.926;2022-07-29T14:04:31;0.70;;;0.70;;
62957;SDS011;49056;48.352;10.926;2022-07-29T14:09:52;1.52;;;1.00;;
62957;SDS011;49056;48.352;10.926;2022-07-29T14:15:12;1.67;;;1.00;;
62957;SDS011;49056;48.352;10.926;2022-07-29T14:20:34;1.62;;;1.00;;
62957;SDS011;49056;48.352;10.926;2022-07-29T14:25:54;1.27;;;0.80;;
62957;SDS011;49056;48.352;10.926;2022-07-29T14:31:15;1.50;;;0.97;;
62957;SDS011;49056;48.352;10.926;2022-07-29T14:36:35;1.55;;;1.02;;
62957;SDS011;49056;48.352;10.926;2022-07-29T14:41:56;1.47;;;1.10;;
62957;SDS011;49056;48.352;10.926;2022-07-29T14:47:19;1.08;;;0.88;;
62957;SDS011;49056;48.352;10.926;2022-07-29T14:52:39;1.10;;;1.00;;
62957;SDS011;49056;48.352;10.926;2022-07-29T14:58:00;1.50;;;0.93;;
62957;SDS011;49056;48.352;10.926;2022-07-29T15:03:21;1.83;;;1.10;;
62957;SDS011;49056;48.352;10.926;2022-07-29T15:08:42;1.60;;;1.20;;
62957;SDS011;49056;48.352;10.926;2022-07-29T15:14:02;1.80;;;1.30;;
62957;SDS011;49056;48.352;10.926;2022-07-29T15:19:24;2.55;;;1.00;;
62957;SDS011;49056;48.352;10.926;2022-07-29T15:24:44;1.83;;;1.10;;
62957;SDS011;49056;48.352;10.926;2022-07-29T15:30:06;1.37;;;0.97;;
62957;SDS011;49056;48.352;10.926;2022-07-29T15:35:27;1.75;;;1.02;;
62957;SDS011;49056;48.352;10.926;2022-07-29T15:40:47;1.17;;;0.97;;
62957;SDS011;49056;48.352;10.926;2022-07-29T15:46:08;1.83;;;1.23;;
62957;SDS011;49056;48.352;10.926;2022-07-29T15:51:47;1.87;;;1.40;;
62957;SDS011;49056;48.352;10.926;2022-07-29T15:57:07;1.33;;;1.10;;
62957;SDS011;49056;48.352;10.926;2022-07-29T16:02:28;1.50;;;1.10;;
62957;SDS011;49056;48.352;10.926;2022-07-29T16:07:48;1.45;;;0.95;;
62957;SDS011;49056;48.352;10.926;2022-07-29T16:13:09;1.40;;;1.03;;
62957;SDS011;49056;48.352;10.926;2022-07-29T16:18:29;1.52;;;0.98;;
62957;SDS011;49056;48.352;10.926;2022-07-29T16:23:50;1.70;;;1.20;;
62957;SDS011;49056;48.352;10.926;2022-07-29T16:29:10;1.92;;;1.20;;
62957;SDS011;49056;48.352;10.926;2022-07-29T16:34:30;1.33;;;1.00;;
62957;SDS011;49056;48.352;10.926;2022-07-29T16:39:51;1.57;;;0.90;;
62957;SDS011;49056;48.352;10.926;2022-07-29T16:45:11;1.80;;;0.70;;
62957;SDS011;49056;48.352;10.926;2022-07-29T16:50:32;1.17;;;0.70;;
62957;SDS011;49056;48.352;10.926;2022-07-29T16:55:52;1.07;;;0.87;;
62957;SDS011;49056;48.352;10.926;2022-07-29T17:01:12;1.17;;;0.83;;
62957;SDS011;49056;48.352;10.926;2022-07-29T17:06:37;1.27;;;0.70;;
62957;SDS011;49056;48.352;10.926;2022-07-29T17:12:01;2.62;;;0.98;;
62957;SDS011;49056;48.352;10.926;2022-07-29T17:17:21;2.47;;;1.08;;
62957;SDS011;49056;48.352;10.926;2022-07-29T17:22:42;1.08;;;0.60;;
62957;SDS011;49056;48.352;10.926;2022-07-29T17:28:02;0.80;;;0.53;;
62957;SDS011;49056;48.352;10.926;2022-07-29T17:33:23;1.00;;;0.70;;
62957;SDS011;49056;48.352;10.926;2022-07-29T17:38:43;1.17;;;0.63;;
62957;SDS011;49056;48.352;10.926;2022-07-29T17:44:04;0.80;;;0.50;;
62957;SDS011;49056;48.352;10.926;2022-07-29T17:49:24;0.80;;;0.40;;
62957;SDS011;49056;48.352;10.926;2022-07-29T17:54:45;0.70;;;0.52;;
62957;SDS011;49056;48.352;10.926;2022-07-29T18:00:08;1.55;;;0.77;;
62957;SDS011;49056;48.352;10.926;2022-07-29T18:05:28;0.75;;;0.40;;
62957;SDS011;49056;48.352;10.926;2022-07-29T18:10:49;1.40;;;0.47;;
62957;SDS011;49056;48.352;10.926;2022-07-29T18:16:09;0.90;;;0.57;;
62957;SDS011;49056;48.352;10.926;2022-07-29T18:21:30;1.30;;;0.70;;
62957;SDS011;49056;48.352;10.926;2022-07-29T18:26:50;0.40;;;0.35;;
62957;SDS011;49056;48.352;10.926;2022-07-29T18:32:10;1.33;;;0.40;;
62957;SDS011;49056;48.352;10.926;2022-07-29T18:37:31;0.60;;;0.40;;
62957;SDS011;49056;48.352;10.926;2022-07-29T18:42:52;1.00;;;0.52;;
62957;SDS011;49056;48.352;10.926;2022-07-29T18:48:13;1.03;;;0.90;;
62957;SDS011;49056;48.352;10.926;2022-07-29T18:53:34;1.00;;;0.20;;
62957;SDS011;49056;48.352;10.926;2022-07-29T18:58:54;0.47;;;0.40;;
62957;SDS011;49056;48.352;10.926;2022-07-29T19:04:15;1.00;;;0.40;;
62957;SDS011;49056;48.352;10.926;2022-07-29T19:09:36;1.50;;;0.60;;
62957;SDS011;49056;48.352;10.926;2022-07-29T19:14:57;0.55;;;0.30;;
62957;SDS011;49056;48.352;10.926;2022-07-29T19:20:17;0.67;;;0.40;;
62957;SDS011;49056;48.352;10.926;2022-07-29T19:25:37;2.07;;;0.40;;
62957;SDS011;49056;48.352;10.926;2022-07-29T19:30:58;1.03;;;0.57;;
62957;SDS011;49056;48.352;10.926;2022-07-29T19:36:18;0.30;;;0.23;;
62957;SDS011;49056;48.352;10.926;2022-07-29T19:41:39;0.85;;;0.40;;
62957;SDS011;49056;48.352;10.926;2022-07-29T19:46:59;0.93;;;0.60;;
62957;SDS011;49056;48.352;10.926;2022-07-29T19:52:21;0.62;;;0.37;;
62957;SDS011;49056;48.352;10.926;2022-07-29T19:57:41;1.10;;;0.73;;
62957;SDS011;49056;48.352;10.926;2022-07-29T20:03:02;1.05;;;0.70;;
62957;SDS011;49056;48.352;10.926;2022-07-29T20:08:23;1.08;;;0.70;;
62957;SDS011;49056;48.352;10.926;2022-07-29T20:13:44;1.00;;;0.70;;
62957;SDS011;49056;48.352;10.926;2022-07-29T20:19:04;1.20;;;0.80;;
62957;SDS011;49056;48.352;10.926;2022-07-29T20:24:25;1.27;;;0.80;;
62957;SDS011;49056;48.352;10.926;2022-07-29T20:29:45;1.37;;;0.77;;
62957;SDS011;49056;48.352;10.926;2022-07-29T20:35:06;1.05;;;0.68;;
62957;SDS011;49056;48.352;10.926;2022-07-29T20:40:26;1.02;;;0.70;;
62957;SDS011;49056;48.352;10.926;2022-07-29T20:45:48;1.25;;;0.73;;
62957;SDS011;49056;48.352;10.926;2022-07-29T20:51:09;1.20;;;0.70;;
62957;SDS011;49056;48.352;10.926;2022-07-29T20:56:29;1.00;;;0.80;;
62957;SDS011;49056;48.352;10.926;2022-07-29T21:01:50;2.00;;;0.97;;
62957;SDS011;49056;48.352;10.926;2022-07-29T21:07:10;1.40;;;0.87;;
62957;SDS011;49056;48.352;10.926;2022-07-29T21:12:30;2.90;;;1.17;;
62957;SDS011;49056;48.352;10.926;2022-07-29T21:17:52;1.70;;;1.08;;
62957;SDS011;49056;48.352;10.926;2022-07-29T21:23:19;1.58;;;0.85;;
62957;SDS011;49056;48.352;10.926;2022-07-29T21:28:39;3.27;;;1.40;;
62957;SDS011;49056;48.352;10.926;2022-07-29T21:34:00;1.63;;;0.93;;
62957;SDS011;49056;48.352;10.926;2022-07-29T21:39:20;1.67;;;0.70;;
62957;SDS011;49056;48.352;10.926;2022-07-29T21:44:41;2.35;;;1.30;;
62957;SDS011;49056;48.352;10.926;2022-07-29T21:50:01;1.67;;;1.10;;
62957;SDS011;49056;48.352;10.926;2022-07-29T21:55:22;2.60;;;1.00;;
62957;SDS011;49056;48.352;10.926;2022-07-29T22:00:42;1.47;;;0.90;;
62957;SDS011;49056;48.352;10.926;2022-07-29T22:06:03;1.58;;;1.17;;
62957;SDS011;49056;48.352;10.926;2022-07-29T22:11:23;1.57;;;1.00;;
62957;SDS011;49056;48.352;10.926;2022-07-29T22:16:44;2.27;;;1.00;;
62957;SDS011;49056;48.352;10.926;2022-07-29T22:22:04;1.10;;;0.82;;
62957;SDS011;49056;48.352;10.926;2022-07-29T22:27:25;0.95;;;0.80;;
62957;SDS011;49056;48.352;10.926;2022-07-29T22:32:45;1.43;;;0.90;;
62957;SDS011;49056;48.352;10.926;2022-07-29T22:38:06;1.67;;;1.05;;
62957;SDS011;49056;48.352;10.926;2022-07-29T22:43:27;1.77;;;1.07;;
62957;SDS011;49056;48.352;10.926;2022-07-29T22:48:47;1.40;;;0.75;;
62957;SDS011;49056;48.352;10.926;2022-07-29T22:54:07;1.60;;;1.00;;
62957;SDS011;49056;48.352;10.926;2022-07-29T22:59:28;1.55;;;0.90;;
62957;SDS011;49056;48.352;10.926;2022-07-29T23:04:48;2.45;;;1.20;;
62957;SDS011;49056;48.352;10.926;2022-07-29T23:10:08;1.63;;;0.90;;
62957;SDS011;49056;48.352;10.926;2022-07-29T23:15:29;1.27;;;0.70;;
62957;SDS011;49056;48.352;10.926;2022-07-29T23:20:49;1.60;;;1.12;;
62957;SDS011;49056;48.352;10.926;2022-07-29T23:26:10;1.37;;;1.00;;
62957;SDS011;49056;48.352;10.926;2022-07-29T23:31:31;1.25;;;0.73;;
62957;SDS011;49056;48.352;10.926;2022-07-29T23:36:51;1.20;;;0.90;;
62957;SDS011;49056;48.352;10.926;2022-07-29T23:42:12;0.97;;;0.73;;
62957;SDS011;49056;48.352;10.926;2022-07-29T23:47:32;1.98;;;1.10;;
62957;SDS011;49056;48.352;10.926;2022-07-29T23:52:52;2.20;;;1.03;;
62957;SDS011;49056;48.352;10.926;2022-07-29T23:58:13;1.70;;;0.90;;
